sensor_id;sensor_type;location;lat;lon;timestamp;temperature;humidity
20811;DHT22;10566;52.928;10.522;2022-08-07T00:00:35;11.90;99.90
20811;DHT22;10566;52.928;10.522;2022-08-07T00:03:01;11.80;99.90
20811;DHT22;10566;52.928;10.522;2022-08-07T00:05:28;11.80;99.90
20811;DHT22;10566;52.928;10.522;2022-08-07T00:07:54;11.80;99.90
20811;DHT22;10566;52.928;10.522;2022-08-07T00:10:20;11.70;99.90
20811;DHT22;10566;52.928;10.522;2022-08-07T00:12:48;11.70;99.90
20811;DHT22;10566;52.928;10.522;2022-08-07T00:15:14;11.70;99.90
20811;DHT22;10566;52.928;10.522;2022-08-07T00:17:39;11.70;99.90
20811;DHT22;10566;52.928;10.522;2022-08-07T00:20:05;11.50;99.90
20811;DHT22;10566;52.928;10.522;2022-08-07T05:32:54;18.40;99.90
20811;DHT22;10566;52.928;10.522;2022-08-07T05:35:21;18.50;99.90
20811;DHT22;10566;52.928;10.522;2022-08-07T05:37:48;18.40;99.90
20811;DHT22;10566;52.928;10.522;2022-08-07T05:40:15;19.20;99.90
20811;DHT22;10566;52.928;10.522;2022-08-07T05:42:43;19.50;99.90
20811;DHT22;10566;52.928;10.522;2022-08-07T05:45:09;20.50;99.90
20811;DHT22;10566;52.928;10.522;2022-08-07T05:47:36;21.20;99.90
20811;DHT22;10566;52.928;10.522;2022-08-07T05:50:02;21.60;99.90
20811;DHT22;10566;52.928;10.522;2022-08-07T05:52:28;23.30;99.90
20811;DHT22;10566;52.928;10.522;2022-08-07T05:54:53;23.20;99.90
20811;DHT22;10566;52.928;10.522;2022-08-07T05:57:20;23.30;99.90
20811;DHT22;10566;52.928;10.522;2022-08-07T05:59:46;24.30;99.90
20811;DHT22;10566;52.928;10.522;2022-08-07T06:02:14;24.90;99.90
20811;DHT22;10566;52.928;10.522;2022-08-07T06:04:46;25.00;99.90
20811;DHT22;10566;52.928;10.522;2022-08-07T06:07:13;25.30;99.90
20811;DHT22;10566;52.928;10.522;2022-08-07T06:09:39;25.00;99.90
20811;DHT22;10566;52.928;10.522;2022-08-07T06:12:06;25.30;99.90
20811;DHT22;10566;52.928;10.522;2022-08-07T06:14:32;25.80;99.90
20811;DHT22;10566;52.928;10.522;2022-08-07T06:17:00;26.00;99.90
20811;DHT22;10566;52.928;10.522;2022-08-07T06:19:27;26.20;99.90
20811;DHT22;10566;52.928;10.522;2022-08-07T06:21:53;26.00;99.90
20811;DHT22;10566;52.928;10.522;2022-08-07T06:24:20;25.70;99.90
20811;DHT22;10566;52.928;10.522;2022-08-07T06:26:46;26.10;99.90
20811;DHT22;10566;52.928;10.522;2022-08-07T06:29:11;26.70;99.90
20811;DHT22;10566;52.928;10.522;2022-08-07T06:31:37;27.20;99.90
20811;DHT22;10566;52.928;10.522;2022-08-07T06:34:03;24.90;99.90
20811;DHT22;10566;52.928;10.522;2022-08-07T06:36:28;26.50;99.90
20811;DHT22;10566;52.928;10.522;2022-08-07T06:38:54;24.80;99.90
20811;DHT22;10566;52.928;10.522;2022-08-07T06:41:24;25.20;99.90
20811;DHT22;10566;52.928;10.522;2022-08-07T06:43:51;25.70;99.90
20811;DHT22;10566;52.928;10.522;2022-08-07T06:46:18;26.10;99.90
20811;DHT22;10566;52.928;10.522;2022-08-07T06:48:44;28.20;99.90
